createdAt,value
2022-12-18T00:00:24.883Z,1022.8
2022-12-18T00:01:24.997Z,1022.8
2022-12-18T00:02:24.908Z,1022.8
2022-12-18T00:03:25.233Z,1022.8
2022-12-18T00:04:25.095Z,1022.8
2022-12-18T00:05:24.930Z,1022.8
2022-12-18T00:06:24.955Z,1022.8
2022-12-18T00:07:24.948Z,1022.8
2022-12-18T00:08:24.973Z,1022.8
2022-12-18T00:09:39.291Z,1022.9
2022-12-18T00:10:24.991Z,1022.9
2022-12-18T00:11:25.007Z,1022.8
2022-12-18T00:12:25.027Z,1022.7
2022-12-18T00:13:27.972Z,1022.8
2022-12-18T00:14:25.049Z,1022.8
2022-12-18T00:15:25.072Z,1022.7
2022-12-18T00:16:25.201Z,1022.8
2022-12-18T00:17:25.090Z,1022.8
2022-12-18T00:18:25.110Z,1022.8
2022-12-18T00:19:25.121Z,1023.0
2022-12-18T00:20:25.134Z,1022.8
2022-12-18T00:21:25.148Z,1022.8
2022-12-18T00:22:25.170Z,1022.9
2022-12-18T00:23:25.182Z,1022.9
2022-12-18T00:24:25.245Z,1022.8
2022-12-18T00:25:25.196Z,1022.8
2022-12-18T00:26:25.202Z,1022.8
2022-12-18T00:27:25.215Z,1022.8
2022-12-18T00:28:25.220Z,1022.9
2022-12-18T00:29:25.235Z,1023.0
2022-12-18T00:30:25.241Z,1023.0
2022-12-18T00:31:26.324Z,1023.0
2022-12-18T00:32:25.252Z,1023.0
2022-12-18T00:33:25.252Z,1022.9
2022-12-18T00:34:25.271Z,1023.0
2022-12-18T00:35:25.279Z,1023.0
2022-12-18T00:36:25.305Z,1022.9
2022-12-18T00:37:25.326Z,1022.9
2022-12-18T00:38:25.313Z,1023.0
2022-12-18T00:39:25.327Z,1023.0
2022-12-18T00:40:25.341Z,1023.0
2022-12-18T00:41:25.360Z,1023.0
2022-12-18T00:42:25.368Z,1023.0
2022-12-18T00:43:25.369Z,1023.1
2022-12-18T00:44:25.377Z,1023.0
2022-12-18T00:45:25.484Z,1022.9
2022-12-18T00:46:25.402Z,1023.0
2022-12-18T00:47:25.404Z,1022.9
2022-12-18T00:48:25.421Z,1023.0
2022-12-18T00:49:25.433Z,1023.0
2022-12-18T00:50:25.441Z,1023.0
2022-12-18T00:51:25.451Z,1023.0
2022-12-18T00:52:25.463Z,1022.9
2022-12-18T00:53:25.466Z,1022.9
2022-12-18T00:54:25.483Z,1022.9
2022-12-18T00:55:25.498Z,1023.0
2022-12-18T00:56:25.515Z,1023.0
2022-12-18T00:57:25.524Z,1023.0
2022-12-18T00:58:25.531Z,1023.0
2022-12-18T00:59:25.542Z,1022.9
2022-12-18T01:00:25.560Z,1023.0
2022-12-18T01:01:25.861Z,1023.0
2022-12-18T01:02:25.826Z,1023.0
2022-12-18T01:03:25.586Z,1023.0
2022-12-18T01:04:25.597Z,1023.0
2022-12-18T01:05:25.616Z,1023.0
2022-12-18T01:06:25.626Z,1023.0
2022-12-18T01:07:25.631Z,1023.0
2022-12-18T01:08:25.653Z,1023.0
2022-12-18T01:26:26.303Z,1023.1
2022-12-18T01:27:26.123Z,1023.1
2022-12-18T01:28:25.951Z,1023.0
2022-12-18T01:29:25.956Z,1023.0
2022-12-18T01:30:25.965Z,1023.0
2022-12-18T01:31:26.188Z,1023.0
2022-12-18T01:32:26.003Z,1023.0
2022-12-18T01:33:26.020Z,1023.0
2022-12-18T01:34:26.038Z,1023.1
2022-12-18T01:35:26.037Z,1023.0
2022-12-18T01:36:26.050Z,1023.0
2022-12-18T01:37:26.058Z,1023.0
2022-12-18T01:38:26.071Z,1023.0
2022-12-18T01:39:26.082Z,1023.0
2022-12-18T01:40:26.096Z,1023.0
2022-12-18T01:41:26.099Z,1023.1
2022-12-18T01:42:26.108Z,1023.0
2022-12-18T01:43:26.116Z,1023.0
2022-12-18T01:44:26.128Z,1023.0
2022-12-18T01:45:26.406Z,1023.0
2022-12-18T01:46:26.156Z,1023.0
2022-12-18T01:47:26.158Z,1023.1
2022-12-18T01:48:26.160Z,1023.0
2022-12-18T01:49:26.172Z,1023.1
2022-12-18T01:50:26.178Z,1023.1
2022-12-18T01:51:26.186Z,1023.1
2022-12-18T01:52:26.194Z,1023.1
2022-12-18T01:53:26.205Z,1023.1
2022-12-18T01:54:26.211Z,1023.1
2022-12-18T01:55:26.231Z,1023.2
2022-12-18T01:56:26.240Z,1023.2
2022-12-18T01:57:26.240Z,1023.3
2022-12-18T01:58:26.358Z,1023.2
2022-12-18T01:59:26.271Z,1023.2
2022-12-18T02:00:26.281Z,1023.2
2022-12-18T02:01:26.718Z,1023.3
2022-12-18T02:02:26.572Z,1023.4
2022-12-18T02:03:26.470Z,1023.4
2022-12-18T02:04:26.484Z,1023.4
2022-12-18T02:05:26.346Z,1023.4
2022-12-18T02:06:26.356Z,1023.3
2022-12-18T02:07:26.371Z,1023.2
2022-12-18T02:08:26.385Z,1023.3
2022-12-18T02:09:26.395Z,1023.2
2022-12-18T02:10:26.846Z,1023.3
2022-12-18T02:11:26.418Z,1023.3
2022-12-18T02:12:26.437Z,1023.3
2022-12-18T02:13:26.442Z,1023.2
2022-12-18T02:14:26.461Z,1023.2
2022-12-18T02:15:26.466Z,1023.2
2022-12-18T02:16:26.600Z,1023.3
2022-12-18T02:17:26.494Z,1023.3
2022-12-18T02:18:26.506Z,1023.3
2022-12-18T02:19:26.513Z,1023.3
2022-12-18T02:20:26.527Z,1023.2
2022-12-18T02:21:26.533Z,1023.3
2022-12-18T02:22:26.544Z,1023.2
2022-12-18T02:23:26.549Z,1023.2
2022-12-18T02:24:26.561Z,1023.3
2022-12-18T02:25:26.562Z,1023.3
2022-12-18T02:26:26.581Z,1023.3
2022-12-18T02:27:26.582Z,1023.3
2022-12-18T02:28:26.594Z,1023.4
2022-12-18T02:29:26.604Z,1023.3
2022-12-18T02:30:26.705Z,1023.3
2022-12-18T02:31:26.630Z,1023.3
2022-12-18T02:32:26.639Z,1023.3
2022-12-18T02:33:26.647Z,1023.3
2022-12-18T02:34:26.664Z,1023.4
2022-12-18T02:35:26.681Z,1023.3
2022-12-18T02:36:26.692Z,1023.4
2022-12-18T02:37:26.700Z,1023.3
2022-12-18T02:38:26.716Z,1023.4
2022-12-18T02:39:26.734Z,1023.4
2022-12-18T02:40:26.741Z,1023.4
2022-12-18T02:41:26.753Z,1023.5
2022-12-18T02:42:26.763Z,1023.5
2022-12-18T02:43:26.782Z,1023.4
2022-12-18T02:44:26.788Z,1023.5
2022-12-18T02:45:26.807Z,1023.5
2022-12-18T02:46:26.817Z,1023.6
2022-12-18T02:47:26.826Z,1023.5
2022-12-18T02:48:26.835Z,1023.6
2022-12-18T02:49:26.841Z,1023.5
2022-12-18T02:50:26.857Z,1023.6
2022-12-18T02:51:26.872Z,1023.6
2022-12-18T02:52:27.263Z,1023.6
2022-12-18T02:53:26.900Z,1023.6
2022-12-18T02:54:26.912Z,1023.6
2022-12-18T02:55:26.923Z,1023.5
2022-12-18T02:56:26.942Z,1023.6
2022-12-18T02:57:26.940Z,1023.6
2022-12-18T02:58:26.950Z,1023.5
2022-12-18T02:59:26.960Z,1023.5
2022-12-18T03:00:26.973Z,1023.6
2022-12-18T03:01:27.351Z,1023.6
2022-12-18T03:02:27.432Z,1023.7
2022-12-18T03:03:27.201Z,1023.6
2022-12-18T03:04:27.008Z,1023.6
2022-12-18T03:05:27.011Z,1023.7
2022-12-18T03:06:27.024Z,1023.6
2022-12-18T03:07:27.048Z,1023.7
2022-12-18T03:08:27.054Z,1023.7
2022-12-18T03:09:27.365Z,1023.6
2022-12-18T03:10:27.071Z,1023.6
2022-12-18T03:11:27.079Z,1023.7
2022-12-18T03:12:27.112Z,1023.6
2022-12-18T03:13:27.106Z,1023.6
2022-12-18T03:14:27.122Z,1023.6
2022-12-18T03:15:27.124Z,1023.7
2022-12-18T03:16:27.326Z,1023.7
2022-12-18T03:17:27.154Z,1023.5
2022-12-18T03:18:27.177Z,1023.5
2022-12-18T03:19:27.190Z,1023.5
2022-12-18T03:20:27.217Z,1023.5
2022-12-18T03:21:27.232Z,1023.5
2022-12-18T03:22:27.247Z,1023.5
2022-12-18T03:23:27.255Z,1023.5
2022-12-18T03:24:27.271Z,1023.6
2022-12-18T03:25:27.283Z,1023.5
2022-12-18T03:26:27.302Z,1023.5
2022-12-18T03:27:27.322Z,1023.5
2022-12-18T03:28:27.328Z,1023.5
2022-12-18T03:29:27.349Z,1023.5
2022-12-18T03:30:27.354Z,1023.5
2022-12-18T03:31:27.567Z,1023.5
2022-12-18T03:32:27.376Z,1023.5
2022-12-18T03:33:27.398Z,1023.5
2022-12-18T03:34:27.413Z,1023.5
2022-12-18T03:35:27.407Z,1023.6
2022-12-18T03:36:27.412Z,1023.5
2022-12-18T03:37:27.434Z,1023.6
2022-12-18T03:38:27.466Z,1023.6
2022-12-18T03:39:27.463Z,1023.6
2022-12-18T03:40:27.479Z,1023.5
2022-12-18T03:41:27.489Z,1023.6
2022-12-18T03:42:27.502Z,1023.6
2022-12-18T03:43:27.527Z,1023.6
2022-12-18T03:44:27.532Z,1023.6
2022-12-18T03:45:27.551Z,1023.7
2022-12-18T03:46:27.718Z,1023.6
2022-12-18T03:47:27.571Z,1023.5
2022-12-18T03:48:27.585Z,1023.6
2022-12-18T03:49:27.588Z,1023.5
2022-12-18T03:50:27.605Z,1023.6
2022-12-18T03:51:27.625Z,1023.5
2022-12-18T03:52:27.628Z,1023.5
2022-12-18T03:53:27.647Z,1023.6
2022-12-18T03:54:27.655Z,1023.5
2022-12-18T03:55:27.669Z,1023.6
2022-12-18T03:56:27.688Z,1023.6
2022-12-18T03:57:28.409Z,1023.5
2022-12-18T03:58:27.709Z,1023.5
2022-12-18T03:59:27.727Z,1023.5
2022-12-18T04:00:27.742Z,1023.5
2022-12-18T04:01:27.986Z,1023.4
2022-12-18T04:02:28.005Z,1023.5
2022-12-18T04:03:27.904Z,1023.4
2022-12-18T04:04:27.781Z,1023.4
2022-12-18T04:05:27.823Z,1023.4
2022-12-18T04:06:27.822Z,1023.4
2022-12-18T04:07:27.840Z,1023.5
2022-12-18T04:08:27.857Z,1023.4
2022-12-18T04:09:27.876Z,1023.4
2022-12-18T04:10:27.898Z,1023.4
2022-12-18T04:11:27.899Z,1023.4
2022-12-18T04:12:27.917Z,1023.4
2022-12-18T04:13:27.932Z,1023.4
2022-12-18T04:14:27.938Z,1023.4
2022-12-18T04:15:28.071Z,1023.5
2022-12-18T04:16:27.954Z,1023.5
2022-12-18T04:17:27.961Z,1023.5
2022-12-18T04:18:28.496Z,1023.5
2022-12-18T04:19:27.977Z,1023.4
2022-12-18T04:20:27.987Z,1023.4
2022-12-18T04:21:28.010Z,1023.4
2022-12-18T04:22:28.016Z,1023.4
2022-12-18T04:23:28.035Z,1023.3
2022-12-18T04:24:28.047Z,1023.5
2022-12-18T04:25:28.057Z,1023.4
2022-12-18T04:26:28.061Z,1023.4
2022-12-18T04:27:28.082Z,1023.5
2022-12-18T04:28:28.098Z,1023.5
2022-12-18T04:29:28.103Z,1023.5
2022-12-18T04:30:28.111Z,1023.5
2022-12-18T04:31:28.256Z,1023.5
2022-12-18T04:32:28.140Z,1023.5
2022-12-18T04:33:28.155Z,1023.5
2022-12-18T04:34:28.173Z,1023.5
2022-12-18T04:35:28.183Z,1023.5
2022-12-18T04:36:28.195Z,1023.5
2022-12-18T04:37:28.212Z,1023.6
2022-12-18T04:38:28.225Z,1023.6
2022-12-18T04:39:28.239Z,1023.6
2022-12-18T04:40:28.249Z,1023.5
2022-12-18T04:41:28.260Z,1023.5
2022-12-18T04:42:28.265Z,1023.6
2022-12-18T04:43:28.459Z,1023.6
2022-12-18T04:44:28.291Z,1023.6
2022-12-18T04:45:28.307Z,1023.6
2022-12-18T04:46:28.508Z,1023.5
2022-12-18T04:47:28.339Z,1023.5
2022-12-18T04:48:28.345Z,1023.5
2022-12-18T04:49:28.363Z,1023.5
2022-12-18T04:50:28.374Z,1023.5
2022-12-18T04:51:28.395Z,1023.5
2022-12-18T04:52:28.406Z,1023.5
2022-12-18T04:53:28.422Z,1023.4
2022-12-18T04:54:28.435Z,1023.5
2022-12-18T04:55:28.453Z,1023.4
2022-12-18T04:56:28.471Z,1023.5
2022-12-18T04:57:28.482Z,1023.6
2022-12-18T04:58:28.481Z,1023.6
2022-12-18T04:59:28.486Z,1023.5
2022-12-18T05:00:28.871Z,1023.6
2022-12-18T05:01:34.889Z,1023.5
2022-12-18T05:02:28.811Z,1023.6
2022-12-18T05:03:28.688Z,1023.6
2022-12-18T05:04:28.553Z,1023.7
2022-12-18T05:05:28.563Z,1023.5
2022-12-18T05:06:28.575Z,1023.6
2022-12-18T05:07:28.594Z,1023.7
2022-12-18T05:08:28.603Z,1023.6
2022-12-18T05:09:28.620Z,1023.6
2022-12-18T05:10:38.402Z,1023.6
2022-12-18T05:11:28.652Z,1023.7
2022-12-18T05:12:28.666Z,1023.7
2022-12-18T05:13:28.670Z,1023.7
2022-12-18T05:14:28.686Z,1023.8
2022-12-18T05:15:29.035Z,1023.7
2022-12-18T05:16:29.012Z,1023.7
2022-12-18T05:17:28.727Z,1023.7
2022-12-18T05:18:28.731Z,1023.7
2022-12-18T05:19:28.744Z,1023.7
2022-12-18T05:20:29.360Z,1023.8
2022-12-18T05:21:28.782Z,1023.7
2022-12-18T05:22:28.783Z,1023.8
2022-12-18T05:23:28.792Z,1023.9
2022-12-18T05:24:28.866Z,1023.8
2022-12-18T05:25:29.359Z,1023.8
2022-12-18T05:26:28.832Z,1023.9
2022-12-18T05:27:28.867Z,1023.9
2022-12-18T05:28:28.855Z,1023.9
2022-12-18T05:29:28.882Z,1023.9
2022-12-18T05:30:28.883Z,1023.9
2022-12-18T05:31:29.027Z,1023.9
2022-12-18T05:32:28.901Z,1023.9
2022-12-18T05:33:28.915Z,1023.9
2022-12-18T05:34:28.912Z,1023.9
2022-12-18T05:35:29.041Z,1023.8
2022-12-18T05:36:28.948Z,1023.9
2022-12-18T05:37:28.970Z,1023.9
2022-12-18T05:38:28.979Z,1023.9
2022-12-18T05:39:28.971Z,1023.8
2022-12-18T05:40:29.540Z,1023.9
2022-12-18T05:41:28.996Z,1023.9
2022-12-18T05:42:29.023Z,1023.8
2022-12-18T05:43:29.034Z,1024.0
2022-12-18T05:44:29.044Z,1023.9
2022-12-18T05:45:29.066Z,1023.9
2022-12-18T05:46:29.172Z,1023.9
2022-12-18T05:47:29.087Z,1024.0
2022-12-18T05:48:29.086Z,1024.0
2022-12-18T05:49:29.090Z,1024.1
2022-12-18T05:50:29.098Z,1024.0
2022-12-18T05:51:29.118Z,1024.0
2022-12-18T05:52:29.136Z,1024.0
2022-12-18T05:53:29.151Z,1024.1
2022-12-18T05:54:29.165Z,1024.0
2022-12-18T05:55:29.172Z,1023.9
2022-12-18T05:56:29.177Z,1023.9
2022-12-18T05:57:29.207Z,1023.9
2022-12-18T05:58:29.212Z,1024.0
2022-12-18T05:59:29.229Z,1023.9
2022-12-18T06:00:29.248Z,1023.9
2022-12-18T06:01:29.313Z,1023.9
2022-12-18T06:02:29.569Z,1023.9
2022-12-18T06:03:34.191Z,1023.9
2022-12-18T06:04:29.284Z,1023.9
2022-12-18T06:05:29.274Z,1023.9
2022-12-18T06:06:29.281Z,1023.8
2022-12-18T06:07:29.290Z,1023.9
2022-12-18T06:08:29.441Z,1023.9
2022-12-18T06:09:29.332Z,1023.9
2022-12-18T06:10:29.344Z,1023.9
2022-12-18T06:11:29.349Z,1023.9
2022-12-18T06:12:29.375Z,1023.9
2022-12-18T06:13:29.385Z,1024.0
2022-12-18T06:14:29.405Z,1024.0
2022-12-18T06:15:29.413Z,1024.0
2022-12-18T06:16:29.677Z,1024.0
2022-12-18T06:17:29.449Z,1024.0
2022-12-18T06:18:29.464Z,1024.1
2022-12-18T06:19:29.472Z,1024.1
2022-12-18T06:20:34.064Z,1024.1
2022-12-18T06:21:29.510Z,1024.0
2022-12-18T06:22:29.533Z,1024.0
2022-12-18T06:23:29.539Z,1024.1
2022-12-18T06:24:29.559Z,1024.1
2022-12-18T06:25:29.609Z,1024.1
2022-12-18T06:26:29.583Z,1024.2
2022-12-18T06:27:29.600Z,1024.1
2022-12-18T06:28:29.643Z,1024.2
2022-12-18T06:29:29.613Z,1024.1
2022-12-18T06:30:29.623Z,1024.1
2022-12-18T06:31:30.854Z,1024.2
2022-12-18T06:32:29.653Z,1024.2
2022-12-18T06:33:29.672Z,1024.1
2022-12-18T06:34:29.660Z,1024.1
2022-12-18T06:35:29.703Z,1024.2
2022-12-18T06:36:29.697Z,1024.2
2022-12-18T06:37:29.690Z,1024.2
2022-12-18T06:38:29.686Z,1024.2
2022-12-18T06:39:29.689Z,1024.2
2022-12-18T06:40:29.723Z,1024.2
2022-12-18T06:41:29.735Z,1024.2
2022-12-18T06:42:29.751Z,1024.3
2022-12-18T06:43:29.757Z,1024.2
2022-12-18T06:44:29.765Z,1024.3
2022-12-18T06:45:29.909Z,1024.2
2022-12-18T06:46:29.777Z,1024.3
2022-12-18T06:47:29.786Z,1024.3
2022-12-18T06:48:29.783Z,1024.2
2022-12-18T06:49:30.927Z,1024.2
2022-12-18T06:50:30.393Z,1024.2
2022-12-18T06:51:29.809Z,1024.2
2022-12-18T06:52:29.817Z,1024.2
2022-12-18T06:53:29.819Z,1024.3
2022-12-18T06:54:29.827Z,1024.3
2022-12-18T06:55:29.833Z,1024.2
2022-12-18T06:56:29.839Z,1024.3
2022-12-18T06:57:29.844Z,1024.2
2022-12-18T06:58:29.858Z,1024.3
2022-12-18T06:59:29.862Z,1024.2
2022-12-18T07:00:30.040Z,1024.2
2022-12-18T07:01:30.109Z,1024.3
2022-12-18T07:02:30.141Z,1024.3
2022-12-18T07:03:29.887Z,1024.4
2022-12-18T07:04:29.898Z,1024.3
2022-12-18T07:05:29.893Z,1024.4
2022-12-18T07:06:29.910Z,1024.4
2022-12-18T07:07:29.922Z,1024.3
2022-12-18T07:08:29.925Z,1024.4
2022-12-18T07:09:29.922Z,1024.3
2022-12-18T07:10:30.128Z,1024.3
2022-12-18T07:11:29.946Z,1024.3
2022-12-18T07:12:29.953Z,1024.2
2022-12-18T07:13:29.961Z,1024.2
2022-12-18T07:14:29.995Z,1024.1
2022-12-18T07:15:29.966Z,1024.1
2022-12-18T07:16:30.135Z,1024.1
2022-12-18T07:17:29.978Z,1024.1
2022-12-18T07:18:29.985Z,1024.2
2022-12-18T07:19:30.907Z,1024.3
2022-12-18T07:20:30.116Z,1024.4
2022-12-18T07:21:30.017Z,1024.3
2022-12-18T07:22:30.015Z,1024.3
2022-12-18T07:23:30.022Z,1024.4
2022-12-18T07:24:30.037Z,1024.4
2022-12-18T07:25:30.049Z,1024.5
2022-12-18T07:26:30.041Z,1024.5
2022-12-18T07:27:30.048Z,1024.5
2022-12-18T07:28:30.055Z,1024.6
2022-12-18T07:29:30.060Z,1024.5
2022-12-18T07:30:30.152Z,1024.5
2022-12-18T07:31:30.218Z,1024.6
2022-12-18T07:32:30.098Z,1024.5
2022-12-18T07:33:30.773Z,1024.5
2022-12-18T07:34:30.108Z,1024.5
2022-12-18T07:35:30.107Z,1024.6
2022-12-18T07:36:30.141Z,1024.6
2022-12-18T07:37:30.129Z,1024.6
2022-12-18T07:38:31.181Z,1024.5
2022-12-18T07:39:30.152Z,1024.6
2022-12-18T07:40:30.132Z,1024.6
2022-12-18T07:41:30.140Z,1024.6
2022-12-18T07:42:30.149Z,1024.6
2022-12-18T07:43:30.160Z,1024.6
2022-12-18T07:44:30.195Z,1024.7
2022-12-18T07:45:30.283Z,1024.6
2022-12-18T07:46:30.182Z,1024.7
2022-12-18T07:47:30.963Z,1024.6
2022-12-18T07:48:30.188Z,1024.6
2022-12-18T07:49:30.185Z,1024.7
2022-12-18T07:50:30.192Z,1024.7
2022-12-18T07:51:30.202Z,1024.6
2022-12-18T07:52:30.266Z,1024.6
2022-12-18T07:53:30.215Z,1024.5
2022-12-18T07:54:30.222Z,1024.7
2022-12-18T07:56:00.237Z,1024.6
2022-12-18T07:56:31.779Z,1024.7
2022-12-18T07:58:30.261Z,1024.6
2022-12-18T07:59:30.274Z,1024.7
2022-12-18T08:00:30.265Z,1024.7
2022-12-18T08:01:30.536Z,1024.7
2022-12-18T08:02:30.531Z,1024.7
2022-12-18T08:03:30.287Z,1024.6
2022-12-18T08:04:30.303Z,1024.7
2022-12-18T08:05:30.297Z,1024.7
2022-12-18T08:06:30.301Z,1024.6
2022-12-18T08:07:31.160Z,1024.7
2022-12-18T08:08:30.319Z,1024.7
2022-12-18T08:09:30.334Z,1024.8
2022-12-18T08:10:30.329Z,1024.8
2022-12-18T08:11:30.333Z,1024.7
2022-12-18T08:12:30.348Z,1024.8
2022-12-18T08:13:30.346Z,1024.7
2022-12-18T08:14:30.385Z,1024.7
2022-12-18T08:15:30.364Z,1024.7
2022-12-18T08:16:30.430Z,1024.7
2022-12-18T08:17:30.375Z,1024.7
2022-12-18T08:18:30.403Z,1024.6
2022-12-18T08:19:30.383Z,1024.7
2022-12-18T08:20:30.385Z,1024.7
2022-12-18T08:21:30.395Z,1024.6
2022-12-18T08:22:30.404Z,1024.6
2022-12-18T08:23:30.407Z,1024.6
2022-12-18T08:24:30.413Z,1024.7
2022-12-18T08:25:30.414Z,1024.6
2022-12-18T08:26:30.427Z,1024.7
2022-12-18T08:27:30.784Z,1024.6
2022-12-18T08:28:30.436Z,1024.6
2022-12-18T08:29:30.439Z,1024.6
2022-12-18T08:30:30.687Z,1024.7
2022-12-18T08:31:30.708Z,1024.7
2022-12-18T08:32:30.466Z,1024.7
2022-12-18T08:33:30.490Z,1024.7
2022-12-18T08:34:30.471Z,1024.6
2022-12-18T08:35:37.922Z,1024.7
2022-12-18T08:36:30.494Z,1024.5
2022-12-18T08:37:30.533Z,1024.6
2022-12-18T08:38:30.538Z,1024.7
2022-12-18T08:39:30.530Z,1024.6
2022-12-18T08:40:30.552Z,1024.6
2022-12-18T08:41:31.299Z,1024.5
2022-12-18T08:42:30.541Z,1024.5
2022-12-18T08:43:30.576Z,1024.5
2022-12-18T08:44:30.558Z,1024.6
2022-12-18T08:45:30.596Z,1024.6
2022-12-18T08:46:31.684Z,1024.5
2022-12-18T08:47:30.630Z,1024.6
2022-12-18T08:48:30.593Z,1024.6
2022-12-18T08:49:30.593Z,1024.5
2022-12-18T08:50:30.605Z,1024.6
2022-12-18T08:51:30.932Z,1024.6
2022-12-18T08:52:30.614Z,1024.7
2022-12-18T08:53:36.031Z,1024.6
2022-12-18T08:54:30.625Z,1024.6
2022-12-18T08:55:30.636Z,1024.6
2022-12-18T08:56:30.637Z,1024.6
2022-12-18T08:57:30.647Z,1024.6
2022-12-18T08:58:30.661Z,1024.6
2022-12-18T08:59:30.657Z,1024.6
2022-12-18T09:00:30.666Z,1024.7
2022-12-18T09:01:31.746Z,1024.6
2022-12-18T09:02:31.113Z,1024.6
2022-12-18T09:03:30.955Z,1024.5
2022-12-18T09:04:30.691Z,1024.5
2022-12-18T09:05:30.768Z,1024.5
2022-12-18T09:06:30.709Z,1024.5
2022-12-18T09:07:30.864Z,1024.5
2022-12-18T09:08:30.713Z,1024.5
2022-12-18T09:09:30.711Z,1024.5
2022-12-18T09:10:30.722Z,1024.6
2022-12-18T09:11:30.728Z,1024.5
2022-12-18T09:12:30.741Z,1024.5
2022-12-18T09:13:30.740Z,1024.6
2022-12-18T09:14:30.756Z,1024.6
2022-12-18T09:15:30.756Z,1024.6
2022-12-18T09:16:33.050Z,1024.5
2022-12-18T09:17:30.925Z,1024.5
2022-12-18T09:18:30.794Z,1024.7
2022-12-18T09:19:30.790Z,1024.7
2022-12-18T09:20:30.797Z,1024.6
2022-12-18T09:21:31.108Z,1024.6
2022-12-18T09:22:30.813Z,1024.6
2022-12-18T09:23:30.814Z,1024.7
2022-12-18T09:24:30.819Z,1024.7
2022-12-18T09:25:30.828Z,1024.7
2022-12-18T09:26:30.843Z,1024.6
2022-12-18T09:27:30.838Z,1024.7
2022-12-18T09:28:30.851Z,1024.7
2022-12-18T09:29:30.855Z,1024.6
2022-12-18T09:30:30.982Z,1024.7
2022-12-18T09:31:30.876Z,1024.7
2022-12-18T09:32:30.880Z,1024.7
2022-12-18T09:33:31.431Z,1024.7
2022-12-18T09:34:30.899Z,1024.6
2022-12-18T09:35:30.903Z,1024.6
2022-12-18T09:36:30.908Z,1024.6
2022-12-18T09:37:30.931Z,1024.5
2022-12-18T09:38:30.926Z,1024.6
2022-12-18T09:39:30.929Z,1024.5
2022-12-18T09:40:30.939Z,1024.6
2022-12-18T09:41:30.939Z,1024.7
2022-12-18T09:42:30.951Z,1024.6
2022-12-18T09:43:30.963Z,1024.7
2022-12-18T09:44:31.127Z,1024.7
2022-12-18T09:45:30.969Z,1024.6
2022-12-18T09:46:31.160Z,1024.6
2022-12-18T09:47:30.995Z,1024.7
2022-12-18T09:48:31.011Z,1024.6
2022-12-18T09:49:31.003Z,1024.6
2022-12-18T09:50:31.012Z,1024.6
2022-12-18T09:51:31.036Z,1024.7
2022-12-18T09:52:31.040Z,1024.5
2022-12-18T09:53:31.036Z,1024.5
2022-12-18T09:54:31.044Z,1024.5
2022-12-18T09:55:37.736Z,1024.6
2022-12-18T09:56:31.058Z,1024.7
2022-12-18T09:57:31.070Z,1024.7
2022-12-18T09:58:31.076Z,1024.6
2022-12-18T09:59:31.096Z,1024.6
2022-12-18T10:00:31.099Z,1024.7
2022-12-18T10:01:44.308Z,1024.7
2022-12-18T10:02:31.388Z,1024.6
2022-12-18T10:03:31.121Z,1024.6
2022-12-18T10:04:32.066Z,1024.7
2022-12-18T10:05:31.136Z,1024.7
2022-12-18T10:06:31.144Z,1024.7
2022-12-18T10:07:31.168Z,1024.7
2022-12-18T10:08:31.159Z,1024.6
2022-12-18T10:09:31.913Z,1024.6
2022-12-18T10:10:31.187Z,1024.6
2022-12-18T10:11:31.197Z,1024.7
2022-12-18T10:12:31.186Z,1024.7
2022-12-18T10:13:31.202Z,1024.7
2022-12-18T10:14:31.196Z,1024.7
2022-12-18T10:15:31.345Z,1024.7
2022-12-18T10:16:31.207Z,1024.6
2022-12-18T10:17:31.229Z,1024.7
2022-12-18T10:18:31.960Z,1024.5
2022-12-18T10:19:31.230Z,1024.6
2022-12-18T10:20:31.249Z,1024.6
2022-12-18T10:21:31.247Z,1024.6
2022-12-18T10:22:31.260Z,1024.6
2022-12-18T10:23:31.265Z,1024.6
2022-12-18T10:24:31.294Z,1024.7
2022-12-18T10:25:31.283Z,1024.7
2022-12-18T10:26:31.293Z,1024.7
2022-12-18T10:27:32.634Z,1024.7
2022-12-18T10:28:31.304Z,1024.8
2022-12-18T10:29:31.305Z,1024.7
2022-12-18T10:30:31.315Z,1024.7
2022-12-18T10:31:31.388Z,1024.7
2022-12-18T10:32:31.339Z,1024.8
2022-12-18T10:33:31.355Z,1024.8
2022-12-18T10:34:31.348Z,1024.8
2022-12-18T10:35:31.362Z,1024.8
2022-12-18T10:36:31.375Z,1024.8
2022-12-18T10:37:32.125Z,1024.9
2022-12-18T10:38:31.388Z,1024.8
2022-12-18T10:39:31.413Z,1024.8
2022-12-18T10:40:31.401Z,1024.8
2022-12-18T10:41:31.455Z,1024.9
2022-12-18T10:42:31.418Z,1024.8
2022-12-18T10:43:31.426Z,1024.8
2022-12-18T10:44:31.434Z,1024.7
2022-12-18T10:45:31.437Z,1024.7
2022-12-18T10:46:31.596Z,1024.7
2022-12-18T10:47:31.456Z,1024.6
2022-12-18T10:48:31.474Z,1024.6
2022-12-18T10:49:31.479Z,1024.7
2022-12-18T10:51:09.527Z,1024.7
2022-12-18T10:51:32.008Z,1024.6
2022-12-18T10:52:31.504Z,1024.8
2022-12-18T10:53:31.533Z,1024.6
2022-12-18T10:54:31.513Z,1024.6
2022-12-18T10:55:31.523Z,1024.6
2022-12-18T10:56:31.542Z,1024.6
2022-12-18T10:57:31.552Z,1024.6
2022-12-18T10:58:31.557Z,1024.6
2022-12-18T10:59:31.555Z,1024.6
2022-12-18T11:00:31.578Z,1024.6
2022-12-18T11:01:31.742Z,1024.6
2022-12-18T11:02:32.210Z,1024.5
2022-12-18T11:03:31.900Z,1024.6
2022-12-18T11:04:31.600Z,1024.6
2022-12-18T11:05:31.621Z,1024.5
2022-12-18T11:06:31.627Z,1024.6
2022-12-18T11:07:31.617Z,1024.5
2022-12-18T11:08:31.631Z,1024.5
2022-12-18T11:09:31.631Z,1024.5
2022-12-18T11:10:31.642Z,1024.4
2022-12-18T11:11:31.652Z,1024.5
2022-12-18T11:12:31.655Z,1024.5
2022-12-18T11:13:31.663Z,1024.5
2022-12-18T11:14:31.671Z,1024.5
2022-12-18T11:15:31.698Z,1024.6
2022-12-18T11:16:31.997Z,1024.6
2022-12-18T11:17:31.915Z,1024.7
2022-12-18T11:18:31.700Z,1024.6
2022-12-18T11:19:31.706Z,1024.6
2022-12-18T11:20:31.717Z,1024.6
2022-12-18T11:21:31.723Z,1024.5
2022-12-18T11:22:31.743Z,1024.5
2022-12-18T11:23:31.736Z,1024.6
2022-12-18T11:24:31.751Z,1024.4
2022-12-18T11:25:34.870Z,1024.4
2022-12-18T11:26:31.764Z,1024.4
2022-12-18T11:27:31.771Z,1024.4
2022-12-18T11:28:31.772Z,1024.5
2022-12-18T11:29:31.786Z,1024.4
2022-12-18T11:30:31.801Z,1024.5
2022-12-18T11:31:31.885Z,1024.5
2022-12-18T11:32:31.806Z,1024.5
2022-12-18T11:33:31.808Z,1024.5
2022-12-18T11:34:31.832Z,1024.4
2022-12-18T11:35:32.394Z,1024.3
2022-12-18T11:36:31.873Z,1024.3
2022-12-18T11:37:31.849Z,1024.3
2022-12-18T11:38:31.843Z,1024.3
2022-12-18T11:39:31.885Z,1024.2
2022-12-18T11:40:41.012Z,1024.2
2022-12-18T11:41:31.860Z,1024.3
2022-12-18T11:42:31.868Z,1024.2
2022-12-18T11:43:31.885Z,1024.3
2022-12-18T11:44:31.876Z,1024.2
2022-12-18T11:45:31.889Z,1024.3
2022-12-18T11:46:32.016Z,1024.2
2022-12-18T11:47:31.904Z,1024.3
2022-12-18T11:48:31.907Z,1024.3
2022-12-18T11:49:31.922Z,1024.2
2022-12-18T11:50:31.921Z,1024.3
2022-12-18T11:51:31.931Z,1024.2
2022-12-18T11:52:31.932Z,1024.2
2022-12-18T11:53:31.944Z,1024.1
2022-12-18T11:54:31.949Z,1024.2
2022-12-18T11:55:32.113Z,1024.1
2022-12-18T11:56:31.984Z,1024.1
2022-12-18T11:57:31.967Z,1024.2
2022-12-18T11:58:31.990Z,1024.0
2022-12-18T11:59:31.982Z,1024.1
2022-12-18T12:00:31.987Z,1024.1
2022-12-18T12:01:32.186Z,1024.1
2022-12-18T12:02:32.346Z,1024.1
2022-12-18T12:03:32.149Z,1024.1
2022-12-18T12:04:32.143Z,1024.1
2022-12-18T12:05:32.026Z,1024.1
2022-12-18T12:06:32.037Z,1024.1
2022-12-18T12:07:32.046Z,1024.0
2022-12-18T12:08:32.602Z,1024.2
2022-12-18T12:09:32.052Z,1024.1
2022-12-18T12:10:32.069Z,1024.1
2022-12-18T12:11:32.074Z,1024.0
2022-12-18T12:12:32.077Z,1024.0
2022-12-18T12:13:32.084Z,1023.9
2022-12-18T12:14:32.093Z,1024.0
2022-12-18T12:15:32.099Z,1023.9
2022-12-18T12:16:32.311Z,1023.9
2022-12-18T12:17:32.518Z,1023.9
2022-12-18T12:18:32.119Z,1023.9
2022-12-18T12:19:32.140Z,1023.8
2022-12-18T12:20:36.313Z,1023.8
2022-12-18T12:21:32.161Z,1023.9
2022-12-18T12:22:32.173Z,1023.8
2022-12-18T12:23:32.174Z,1023.8
2022-12-18T12:24:32.177Z,1023.7
2022-12-18T12:25:32.240Z,1023.8
2022-12-18T12:26:33.131Z,1023.7
2022-12-18T12:27:32.201Z,1023.7
2022-12-18T12:28:32.202Z,1023.7
2022-12-18T12:29:32.226Z,1023.7
2022-12-18T12:30:32.219Z,1023.7
2022-12-18T12:31:32.361Z,1023.7
2022-12-18T12:32:32.247Z,1023.7
2022-12-18T12:33:32.243Z,1023.7
2022-12-18T12:34:32.258Z,1023.6
2022-12-18T12:35:32.265Z,1023.7
2022-12-18T12:36:32.268Z,1023.6
2022-12-18T12:37:32.275Z,1023.6
2022-12-18T12:38:32.294Z,1023.6
2022-12-18T12:39:32.296Z,1023.7
2022-12-18T12:40:52.331Z,1023.6
2022-12-18T12:41:32.300Z,1023.7
2022-12-18T12:42:32.312Z,1023.6
2022-12-18T12:43:32.684Z,1023.6
2022-12-18T12:44:32.596Z,1023.6
2022-12-18T12:45:32.504Z,1023.5
2022-12-18T12:46:32.340Z,1023.5